Time;durP1;ratioP1;P1;durP2;ratioP2;P2;SDS_P1;SDS_P2;PMS_P1;PMS_P2;Temp;Humidity;BMP_temperature;BMP_pressure;BME280_temperature;BME280_humidity;BME280_pressure;Samples;Min_cycle;Max_cycle;Signal;HPM_P1;HPM_P2
2023/03/29 00:01:55;;;;;;;8.10;2.97;;;7.10;99.90;;;;;;5090821;28;20089;-70
2023/03/29 00:04:21;;;;;;;6.28;2.67;;;7.10;99.90;;;;;;5090266;28;20093;-70
2023/03/29 00:06:47;;;;;;;6.97;3.17;;;7.10;99.90;;;;;;5091182;28;20157;-70
2023/03/29 00:09:14;;;;;;;10.18;3.30;;;7.10;99.90;;;;;;5092079;28;20111;-68
2023/03/29 00:11:40;;;;;;;5.35;2.88;;;7.10;99.90;;;;;;5078010;28;20024;-68
2023/03/29 00:14:06;;;;;;;6.55;2.80;;;7.10;99.90;;;;;;5088633;28;20551;-68
2023/03/29 00:16:31;;;;;;;8.80;2.38;;;7.10;99.90;;;;;;5087995;28;20123;-68
2023/03/29 00:18:57;;;;;;;4.47;2.60;;;7.10;99.90;;;;;;5086769;28;20040;-69
2023/03/29 00:21:23;;;;;;;7.20;3.15;;;7.10;99.90;;;;;;5092294;28;20024;-70
2023/03/29 00:23:48;;;;;;;6.05;2.80;;;7.00;99.90;;;;;;5086219;28;20129;-69
2023/03/29 00:26:14;;;;;;;9.27;3.40;;;7.10;99.90;;;;;;5091194;28;20044;-69
2023/03/29 00:28:39;;;;;;;6.50;3.08;;;7.10;99.90;;;;;;5089609;28;20032;-69
2023/03/29 00:31:16;;;;;;;5.50;3.17;;;7.10;99.90;;;;;;5090398;28;20427;-69
2023/03/29 00:33:42;;;;;;;6.53;3.10;;;7.20;99.90;;;;;;5091307;28;20028;-69
2023/03/29 00:36:10;;;;;;;6.80;3.28;;;7.20;99.90;;;;;;5092647;28;20043;-69
2023/03/29 00:38:35;;;;;;;7.30;2.92;;;7.20;99.90;;;;;;5090170;28;20044;-69
2023/03/29 00:41:02;;;;;;;6.72;2.90;;;7.20;99.90;;;;;;5090031;28;20032;-69
2023/03/29 00:43:28;;;;;;;7.28;2.92;;;7.20;99.90;;;;;;5075442;28;20032;-69
2023/03/29 00:45:55;;;;;;;5.63;3.22;;;7.20;99.90;;;;;;5091708;28;20036;-68
2023/03/29 00:48:28;;;;;;;7.35;2.78;;;7.30;99.90;;;;;;5092293;28;20082;-70
2023/03/29 00:51:02;;;;;;;7.88;3.40;;;7.30;99.90;;;;;;5092260;28;20025;-70
2023/03/29 00:53:47;;;;;;;7.13;3.13;;;7.30;99.90;;;;;;5091432;28;20032;-70
2023/03/29 00:56:24;;;;;;;7.18;2.90;;;7.30;99.90;;;;;;5092607;28;20085;-70
2023/03/29 00:58:56;;;;;;;9.50;3.17;;;7.30;99.90;;;;;;5093167;28;20027;-70
2023/03/29 01:01:54;;;;;;;9.90;4.03;;;7.30;99.90;;;;;;5092388;28;20052;-69
2023/03/29 01:04:59;;;;;;;8.93;3.38;;;7.30;99.90;;;;;;5082187;28;20040;-69
2023/03/29 01:07:31;;;;;;;8.65;3.10;;;7.30;99.90;;;;;;5045273;28;20052;-69
2023/03/29 01:10:19;;;;;;;8.63;3.13;;;7.40;99.90;;;;;;5091302;28;20058;-69
2023/03/29 01:12:52;;;;;;;7.85;3.45;;;7.40;99.90;;;;;;5090989;28;20261;-69
2023/03/29 01:15:22;;;;;;;7.43;3.30;;;7.40;99.90;;;;;;5087519;28;20544;-69
2023/03/29 01:17:50;;;;;;;7.20;3.00;;;7.40;99.90;;;;;;5092423;28;20535;-69
2023/03/29 01:20:22;;;;;;;6.40;2.97;;;7.40;99.90;;;;;;5091969;28;20028;-69
2023/03/29 01:23:25;;;;;;;8.63;3.08;;;7.50;99.90;;;;;;5091832;28;20433;-69
2023/03/29 01:26:12;;;;;;;7.30;3.17;;;7.60;99.90;;;;;;5083249;28;20044;-69
2023/03/29 01:29:00;;;;;;;6.10;3.00;;;7.60;99.90;;;;;;5091986;28;20081;-69
2023/03/29 01:31:33;;;;;;;8.15;3.33;;;7.60;99.90;;;;;;5090540;28;20120;-70
2023/03/29 01:34:09;;;;;;;5.78;3.17;;;7.60;99.90;;;;;;5091516;28;20028;-69
2023/03/29 01:36:40;;;;;;;9.40;3.65;;;7.60;99.90;;;;;;5092628;28;20032;-69
2023/03/29 01:39:06;;;;;;;8.23;3.53;;;7.60;99.90;;;;;;5092133;28;20099;-69
2023/03/29 01:41:48;;;;;;;8.07;3.28;;;7.70;99.90;;;;;;5091595;28;20554;-68
2023/03/29 01:44:19;;;;;;;9.02;3.60;;;7.70;99.90;;;;;;5092393;28;20035;-68
2023/03/29 01:46:51;;;;;;;8.65;3.10;;;7.70;99.90;;;;;;5092218;28;20051;-69
2023/03/29 01:49:19;;;;;;;7.80;3.00;;;7.70;99.90;;;;;;5092566;28;20024;-69
2023/03/29 01:52:13;;;;;;;8.02;3.70;;;7.80;99.90;;;;;;5090594;28;20036;-69
2023/03/29 01:54:46;;;;;;;7.97;3.63;;;7.80;99.90;;;;;;5085181;28;20081;-69
2023/03/29 01:57:13;;;;;;;5.90;3.17;;;7.80;99.90;;;;;;5091643;28;20458;-69
2023/03/29 01:59:42;;;;;;;8.40;3.70;;;7.80;99.90;;;;;;5092356;28;20028;-69
2023/03/29 02:02:13;;;;;;;9.25;3.40;;;7.80;99.90;;;;;;5092896;28;20137;-69
2023/03/29 02:04:48;;;;;;;7.97;3.60;;;7.90;99.90;;;;;;5095977;28;20028;-69
2023/03/29 02:07:18;;;;;;;7.00;3.10;;;7.90;99.90;;;;;;5095504;28;20073;-69
2023/03/29 02:09:45;;;;;;;9.15;3.80;;;7.90;99.90;;;;;;5095601;28;20464;-69
2023/03/29 02:12:14;;;;;;;7.18;3.35;;;7.90;99.90;;;;;;5094827;28;20463;-69
2023/03/29 02:14:40;;;;;;;11.00;4.07;;;7.90;99.90;;;;;;5088364;28;20462;-70
2023/03/29 02:17:23;;;;;;;7.40;3.83;;;7.90;99.90;;;;;;5095116;28;20028;-69
2023/03/29 02:20:13;;;;;;;11.02;4.07;;;8.00;99.90;;;;;;5095204;28;20032;-69
2023/03/29 02:23:01;;;;;;;10.02;3.92;;;8.00;99.90;;;;;;5092881;28;20472;-69
2023/03/29 02:25:28;;;;;;;9.93;4.25;;;8.10;99.90;;;;;;5071946;28;20039;-69
2023/03/29 02:27:55;;;;;;;8.95;4.18;;;8.10;99.90;;;;;;5095325;28;20032;-69
2023/03/29 02:30:22;;;;;;;9.73;3.45;;;8.10;99.90;;;;;;5094806;28;20115;-69
2023/03/29 02:32:59;;;;;;;10.18;3.70;;;8.20;99.90;;;;;;5095244;28;20032;-69
2023/03/29 02:35:47;;;;;;;11.57;4.50;;;8.20;99.90;;;;;;5094694;28;20475;-69
2023/03/29 02:38:13;;;;;;;10.52;4.43;;;8.20;99.90;;;;;;5094492;28;20115;-69
2023/03/29 02:40:41;;;;;;;9.55;4.57;;;8.20;99.90;;;;;;5094720;28;20036;-69
2023/03/29 02:43:09;;;;;;;15.55;4.28;;;8.30;99.90;;;;;;5095445;28;20028;-69
2023/03/29 02:45:35;;;;;;;7.25;3.70;;;8.30;99.90;;;;;;5094858;28;20044;-69
2023/03/29 02:48:07;;;;;;;10.43;4.20;;;8.30;99.90;;;;;;5090674;28;20039;-69
2023/03/29 02:50:41;;;;;;;11.05;4.30;;;8.30;99.90;;;;;;5086691;28;20040;-69
2023/03/29 02:53:21;;;;;;;11.50;5.05;;;8.30;99.90;;;;;;5088046;28;20035;-69
2023/03/29 02:55:47;;;;;;;10.38;4.15;;;8.30;99.90;;;;;;5093418;28;20420;-69
2023/03/29 02:58:14;;;;;;;10.25;4.25;;;8.30;99.90;;;;;;5094577;28;20067;-70
2023/03/29 03:00:43;;;;;;;12.10;4.50;;;8.30;99.90;;;;;;5094230;28;20043;-69
2023/03/29 03:03:11;;;;;;;8.68;3.53;;;8.30;99.90;;;;;;5094558;28;20039;-69
2023/03/29 03:05:37;;;;;;;10.23;4.10;;;8.30;99.90;;;;;;5094361;28;20040;-69
2023/03/29 03:08:06;;;;;;;11.35;4.60;;;8.30;99.90;;;;;;5092930;28;20033;-69
2023/03/29 03:10:35;;;;;;;10.27;4.50;;;8.30;99.90;;;;;;5093513;28;20024;-69
2023/03/29 03:13:01;;;;;;;11.25;4.55;;;8.30;99.90;;;;;;5094170;28;20028;-69
2023/03/29 03:15:26;;;;;;;8.88;3.88;;;8.40;99.90;;;;;;5094461;28;20040;-69
2023/03/29 03:17:53;;;;;;;13.63;4.72;;;8.50;99.90;;;;;;5094738;28;20422;-69
2023/03/29 03:20:21;;;;;;;10.63;4.30;;;8.50;99.90;;;;;;5093564;28;20425;-68
2023/03/29 03:22:47;;;;;;;11.18;4.35;;;8.50;99.90;;;;;;5094506;28;20031;-68
2023/03/29 03:25:19;;;;;;;10.18;4.53;;;8.50;99.90;;;;;;5093963;28;20051;-68
2023/03/29 03:27:46;;;;;;;9.82;4.88;;;8.50;99.90;;;;;;5093540;28;20111;-68
2023/03/29 03:30:12;;;;;;;12.20;4.97;;;8.50;99.90;;;;;;5094244;28;20032;-68
2023/03/29 03:32:38;;;;;;;11.13;4.25;;;8.50;99.90;;;;;;5093694;28;20596;-69
2023/03/29 03:35:04;;;;;;;11.20;4.65;;;8.60;99.90;;;;;;5093644;28;20115;-68
2023/03/29 03:37:30;;;;;;;11.52;4.80;;;8.60;99.90;;;;;;5093958;28;20032;-68
2023/03/29 03:39:55;;;;;;;11.85;5.10;;;8.70;99.90;;;;;;5093889;28;20047;-68
2023/03/29 03:42:22;;;;;;;9.50;4.57;;;8.70;99.90;;;;;;5093658;28;20488;-68
2023/03/29 03:44:48;;;;;;;12.15;4.45;;;8.70;99.90;;;;;;5093925;28;20039;-68
2023/03/29 03:47:14;;;;;;;9.23;4.88;;;8.80;99.90;;;;;;5093476;28;20093;-68
2023/03/29 03:49:40;;;;;;;10.20;4.30;;;8.80;99.90;;;;;;5093969;28;20064;-68
2023/03/29 03:52:06;;;;;;;10.73;4.95;;;8.80;99.90;;;;;;5094015;28;20036;-68
2023/03/29 03:54:32;;;;;;;11.52;4.60;;;8.80;99.90;;;;;;5093218;28;20028;-69
2023/03/29 03:56:58;;;;;;;11.90;5.22;;;8.80;99.90;;;;;;5093388;28;20032;-68
2023/03/29 03:59:24;;;;;;;8.98;3.88;;;8.90;99.90;;;;;;5093606;28;20154;-68
2023/03/29 04:01:49;;;;;;;9.32;4.32;;;8.90;99.90;;;;;;5085568;28;20468;-70
2023/03/29 04:04:15;;;;;;;11.95;5.07;;;8.90;99.90;;;;;;5090038;28;20103;-70
2023/03/29 04:06:42;;;;;;;14.50;5.03;;;8.90;99.90;;;;;;5091946;28;20097;-70
2023/03/29 04:09:08;;;;;;;9.82;4.38;;;8.90;99.90;;;;;;5091878;28;20046;-70
2023/03/29 04:11:34;;;;;;;11.43;4.78;;;8.80;99.90;;;;;;5091132;28;20032;-69
2023/03/29 04:14:00;;;;;;;12.05;4.97;;;8.90;99.90;;;;;;5091964;28;20052;-69
2023/03/29 04:16:26;;;;;;;11.77;4.88;;;8.90;99.90;;;;;;5091790;28;20139;-68
2023/03/29 04:18:52;;;;;;;12.43;4.75;;;8.90;99.90;;;;;;5091924;28;20073;-68
2023/03/29 04:21:17;;;;;;;9.02;4.35;;;8.90;99.90;;;;;;5091443;28;20028;-68
2023/03/29 04:23:45;;;;;;;12.95;4.50;;;8.90;99.90;;;;;;5092020;28;20552;-68
2023/03/29 04:26:12;;;;;;;8.57;3.55;;;8.90;99.90;;;;;;5090325;28;20123;-69
2023/03/29 04:28:38;;;;;;;12.05;5.00;;;8.90;99.90;;;;;;5090590;28;20028;-68
2023/03/29 04:31:07;;;;;;;12.63;4.78;;;8.90;99.90;;;;;;5087268;28;20036;-68
2023/03/29 04:33:33;;;;;;;12.05;4.45;;;9.00;99.90;;;;;;5090038;28;20122;-69
2023/03/29 04:35:58;;;;;;;13.32;5.30;;;9.00;99.90;;;;;;5087832;28;20108;-69
2023/03/29 04:38:25;;;;;;;9.98;4.68;;;9.00;99.90;;;;;;5090509;28;20127;-68
2023/03/29 04:40:51;;;;;;;12.35;5.60;;;9.00;99.90;;;;;;5092171;28;20024;-68
2023/03/29 04:43:16;;;;;;;9.15;4.82;;;9.00;99.90;;;;;;5085475;28;20047;-69
2023/03/29 04:45:42;;;;;;;12.77;5.65;;;9.00;99.90;;;;;;5085902;28;20048;-68
2023/03/29 04:48:08;;;;;;;14.90;4.88;;;9.00;99.90;;;;;;5086202;28;20035;-69
2023/03/29 04:50:35;;;;;;;13.13;5.30;;;9.10;99.90;;;;;;5090135;28;20020;-68
2023/03/29 04:53:01;;;;;;;9.10;4.70;;;9.10;99.90;;;;;;5090997;28;20020;-68
2023/03/29 04:55:26;;;;;;;11.52;4.97;;;9.20;99.90;;;;;;5088062;28;20373;-68
2023/03/29 04:57:52;;;;;;;8.70;4.97;;;9.20;99.90;;;;;;5090216;28;20357;-69
2023/03/29 05:00:25;;;;;;;11.85;4.95;;;9.30;99.90;;;;;;5088717;28;20368;-68
2023/03/29 05:02:51;;;;;;;14.25;5.75;;;9.40;99.90;;;;;;5091192;28;20085;-68
2023/03/29 05:05:17;;;;;;;13.23;5.43;;;9.50;99.90;;;;;;5086391;28;20040;-69
2023/03/29 05:07:44;;;;;;;12.30;5.07;;;9.50;99.90;;;;;;5092482;28;20119;-68
2023/03/29 05:10:10;;;;;;;13.77;5.30;;;9.60;99.90;;;;;;5092933;28;20081;-68
2023/03/29 05:12:36;;;;;;;10.95;4.55;;;9.60;99.90;;;;;;5092400;28;20085;-69
2023/03/29 05:15:04;;;;;;;11.90;5.50;;;9.60;99.90;;;;;;5084982;28;20111;-68
2023/03/29 05:17:30;;;;;;;14.82;6.07;;;9.50;99.90;;;;;;5088598;28;20384;-69
2023/03/29 05:19:56;;;;;;;16.15;6.07;;;9.50;99.90;;;;;;5092534;28;20490;-69
2023/03/29 05:22:22;;;;;;;14.73;5.60;;;9.50;99.90;;;;;;5092434;28;20032;-68
2023/03/29 05:24:50;;;;;;;15.68;5.95;;;9.60;99.90;;;;;;5091706;28;20048;-68
2023/03/29 05:27:16;;;;;;;14.55;5.88;;;9.60;99.90;;;;;;5092728;28;20077;-69
2023/03/29 05:29:43;;;;;;;11.95;5.85;;;9.60;99.90;;;;;;5087894;28;20028;-69
2023/03/29 05:32:09;;;;;;;13.63;6.05;;;9.60;99.90;;;;;;5091856;28;20032;-68
2023/03/29 05:34:35;;;;;;;14.88;5.20;;;9.60;99.90;;;;;;5092688;28;20537;-68
2023/03/29 05:37:01;;;;;;;14.88;5.25;;;9.60;99.90;;;;;;5079659;28;20024;-69
2023/03/29 05:39:27;;;;;;;12.55;5.68;;;9.60;99.90;;;;;;5091337;28;20120;-68
2023/03/29 05:41:54;;;;;;;14.40;5.05;;;9.60;99.90;;;;;;5091242;28;20423;-68
2023/03/29 05:44:20;;;;;;;13.40;5.25;;;9.60;99.90;;;;;;5091828;28;20047;-68
2023/03/29 05:46:45;;;;;;;13.70;5.90;;;9.60;99.90;;;;;;5091300;28;20607;-69
2023/03/29 05:49:11;;;;;;;14.85;6.10;;;9.60;99.90;;;;;;5090990;28;20028;-68
2023/03/29 05:51:37;;;;;;;14.38;7.20;;;9.70;99.90;;;;;;5091110;28;20039;-68
2023/03/29 05:54:02;;;;;;;15.90;5.95;;;9.80;99.90;;;;;;5091821;28;20024;-68
2023/03/29 05:56:28;;;;;;;13.52;6.32;;;9.80;99.90;;;;;;5090994;28;20078;-68
2023/03/29 05:58:55;;;;;;;18.02;7.10;;;9.90;99.90;;;;;;5091623;28;20031;-69
2023/03/29 06:01:23;;;;;;;16.17;6.38;;;9.90;99.90;;;;;;5090292;28;20054;-69
2023/03/29 06:03:52;;;;;;;17.60;6.43;;;9.90;99.90;;;;;;5084032;28;20535;-69
2023/03/29 06:06:18;;;;;;;19.85;6.47;;;9.90;99.90;;;;;;5091631;28;20387;-69
2023/03/29 06:08:44;;;;;;;14.15;6.05;;;9.90;99.90;;;;;;5091210;28;20130;-69
2023/03/29 06:11:10;;;;;;;13.43;5.68;;;9.90;99.90;;;;;;5091243;28;20085;-68
2023/03/29 06:13:37;;;;;;;15.93;5.93;;;9.90;99.90;;;;;;5089130;28;20040;-68
2023/03/29 06:16:04;;;;;;;17.60;5.90;;;9.90;99.90;;;;;;5090297;28;20028;-68
2023/03/29 06:18:31;;;;;;;14.23;5.78;;;10.00;99.90;;;;;;5090368;28;20123;-68
2023/03/29 06:20:56;;;;;;;17.63;6.47;;;10.00;99.90;;;;;;5089712;28;20105;-69
2023/03/29 06:23:22;;;;;;;14.23;5.75;;;10.00;99.90;;;;;;5091361;28;20024;-68
2023/03/29 06:25:50;;;;;;;13.43;5.65;;;10.00;99.90;;;;;;5091668;28;20064;-68
2023/03/29 06:28:17;;;;;;;21.25;8.88;;;10.10;99.90;;;;;;5091545;28;20036;-69
2023/03/29 06:30:44;;;;;;;23.63;6.78;;;10.00;99.90;;;;;;5089927;28;20032;-68
2023/03/29 06:33:11;;;;;;;13.30;6.22;;;10.10;99.90;;;;;;5091279;28;20468;-68
2023/03/29 06:35:42;;;;;;;14.75;5.60;;;10.10;99.90;;;;;;5091527;28;20036;-68
2023/03/29 06:38:09;;;;;;;17.42;8.02;;;10.10;99.90;;;;;;5091413;28;20024;-68
2023/03/29 06:40:36;;;;;;;19.08;8.70;;;10.10;99.90;;;;;;5090819;28;20084;-69
2023/03/29 06:43:03;;;;;;;20.80;9.45;;;10.20;99.90;;;;;;5090717;28;20107;-68
2023/03/29 06:45:32;;;;;;;22.35;9.63;;;10.20;99.90;;;;;;5078187;28;20048;-69
2023/03/29 06:47:57;;;;;;;17.88;7.15;;;10.30;99.90;;;;;;5089664;28;20032;-69
2023/03/29 06:50:24;;;;;;;18.17;8.02;;;10.40;99.90;;;;;;5093736;28;20028;-69
2023/03/29 06:52:50;;;;;;;23.80;10.98;;;10.40;99.90;;;;;;5092086;28;20028;-69
2023/03/29 06:55:17;;;;;;;18.25;8.05;;;10.40;99.90;;;;;;5093667;28;20032;-68
2023/03/29 06:57:43;;;;;;;18.08;7.68;;;10.50;99.90;;;;;;5094669;28;20103;-70
2023/03/29 07:00:26;;;;;;;20.17;8.32;;;10.50;99.90;;;;;;5090281;28;20053;-70
2023/03/29 07:02:57;;;;;;;14.90;5.93;;;10.60;99.90;;;;;;5092878;28;20032;-70
2023/03/29 07:05:26;;;;;;;24.35;8.27;;;10.70;99.90;;;;;;5094652;28;20028;-70
2023/03/29 07:07:54;;;;;;;28.25;12.40;;;10.70;99.90;;;;;;5094528;28;20361;-70
2023/03/29 07:10:25;;;;;;;20.55;8.52;;;10.70;99.90;;;;;;5093553;28;20028;-69
2023/03/29 07:12:51;;;;;;;22.88;7.90;;;10.80;99.90;;;;;;5092259;28;20483;-69
2023/03/29 07:15:17;;;;;;;22.60;8.65;;;10.90;99.90;;;;;;5086124;28;20520;-69
2023/03/29 07:17:43;;;;;;;23.17;9.20;;;10.90;99.90;;;;;;5092952;28;20028;-69
2023/03/29 07:20:12;;;;;;;26.70;9.02;;;11.00;99.90;;;;;;5093062;28;20076;-69
2023/03/29 07:22:39;;;;;;;23.13;8.52;;;11.00;99.90;;;;;;5093906;28;20071;-69
2023/03/29 07:25:08;;;;;;;19.60;7.30;;;11.10;99.90;;;;;;5093610;28;20084;-69
2023/03/29 07:27:34;;;;;;;29.73;12.57;;;11.10;99.90;;;;;;5093929;28;20494;-69
2023/03/29 07:29:59;;;;;;;24.42;11.52;;;11.10;99.90;;;;;;5086464;28;20024;-69
2023/03/29 07:32:25;;;;;;;33.83;15.95;;;11.10;99.90;;;;;;5086075;28;20032;-69
2023/03/29 07:34:51;;;;;;;30.40;11.93;;;11.20;99.90;;;;;;5093957;28;20031;-69
2023/03/29 07:37:16;;;;;;;33.60;12.80;;;11.20;99.90;;;;;;5093813;28;20111;-69
2023/03/29 07:39:43;;;;;;;30.75;11.95;;;11.30;99.90;;;;;;5093250;28;20028;-69
2023/03/29 07:42:09;;;;;;;33.42;13.68;;;11.20;99.90;;;;;;5093486;28;20456;-69
2023/03/29 07:44:34;;;;;;;30.23;11.77;;;11.20;99.90;;;;;;5087553;28;20115;-69
2023/03/29 07:47:04;;;;;;;35.25;14.73;;;11.20;99.90;;;;;;5086834;28;20064;-69
2023/03/29 07:49:30;;;;;;;25.65;10.40;;;11.20;99.90;;;;;;5092834;28;20107;-69
2023/03/29 07:51:55;;;;;;;30.20;12.10;;;11.20;99.90;;;;;;5093553;28;20111;-69
2023/03/29 07:54:21;;;;;;;33.50;12.40;;;11.30;99.90;;;;;;5092627;28;20020;-69
2023/03/29 07:56:47;;;;;;;30.88;13.02;;;11.40;99.90;;;;;;5093654;28;20035;-69
2023/03/29 07:59:12;;;;;;;31.70;11.65;;;11.50;99.90;;;;;;5092917;28;20441;-70
2023/03/29 08:01:39;;;;;;;32.85;13.07;;;11.60;99.90;;;;;;5093158;28;20032;-69
2023/03/29 08:04:06;;;;;;;30.30;12.60;;;11.60;99.90;;;;;;5092758;28;20035;-69
2023/03/29 08:06:32;;;;;;;25.35;11.35;;;11.60;99.90;;;;;;5093058;28;20388;-69
2023/03/29 08:08:58;;;;;;;31.00;13.00;;;11.60;99.90;;;;;;5093166;28;20077;-69
2023/03/29 08:11:24;;;;;;;28.65;11.77;;;11.60;99.90;;;;;;5092228;28;20111;-69
2023/03/29 08:13:50;;;;;;;29.25;13.68;;;11.70;99.90;;;;;;5088569;28;20111;-69
2023/03/29 08:16:16;;;;;;;25.98;12.43;;;11.80;99.90;;;;;;5090853;28;20024;-69
2023/03/29 08:18:42;;;;;;;29.73;11.02;;;11.80;99.90;;;;;;5091500;28;20433;-69
2023/03/29 08:21:07;;;;;;;27.77;11.93;;;11.80;99.90;;;;;;5092361;28;20024;-70
2023/03/29 08:23:33;;;;;;;25.25;10.43;;;12.00;99.90;;;;;;5092249;28;20032;-69
2023/03/29 08:25:59;;;;;;;31.20;13.82;;;12.00;99.90;;;;;;5092911;28;20051;-69
2023/03/29 08:28:24;;;;;;;21.23;9.85;;;12.10;99.90;;;;;;5093480;28;20017;-69
2023/03/29 08:30:54;;;;;;;26.35;10.93;;;12.20;99.90;;;;;;5091829;28;20392;-70
2023/03/29 08:33:20;;;;;;;31.60;12.82;;;12.20;99.90;;;;;;5088789;28;20066;-70
2023/03/29 08:35:47;;;;;;;24.73;9.77;;;12.20;99.90;;;;;;5093040;28;20020;-69
2023/03/29 08:38:13;;;;;;;22.75;10.55;;;12.30;99.90;;;;;;5092747;28;20127;-70
2023/03/29 08:40:38;;;;;;;28.55;11.82;;;12.30;99.90;;;;;;5092428;28;20114;-70
2023/03/29 08:43:07;;;;;;;29.27;14.70;;;12.40;99.90;;;;;;5091818;28;20097;-70
2023/03/29 08:46:00;;;;;;;31.63;14.77;;;12.40;99.90;;;;;;5083615;28;20407;-69
2023/03/29 08:48:37;;;;;;;32.63;14.65;;;12.40;99.90;;;;;;5090406;28;20112;-68
2023/03/29 08:51:20;;;;;;;31.33;13.20;;;12.50;99.90;;;;;;5084821;28;20032;-68
2023/03/29 08:53:52;;;;;;;28.33;13.10;;;12.50;99.90;;;;;;5091430;28;20063;-68
2023/03/29 08:56:23;;;;;;;24.02;12.05;;;12.50;99.90;;;;;;5092642;28;20028;-68
2023/03/29 08:58:51;;;;;;;23.70;12.10;;;12.50;99.90;;;;;;5092983;28;20065;-69
2023/03/29 09:01:17;;;;;;;19.73;9.32;;;12.60;99.90;;;;;;5091924;28;20035;-69
2023/03/29 09:03:48;;;;;;;24.27;11.88;;;12.70;99.90;;;;;;5090995;28;20361;-69
2023/03/29 09:06:17;;;;;;;26.80;13.00;;;12.70;99.90;;;;;;5091968;28;20040;-69
2023/03/29 09:08:46;;;;;;;24.55;11.48;;;12.90;99.90;;;;;;5076336;28;20024;-69
2023/03/29 09:11:31;;;;;;;23.60;10.90;;;13.00;99.90;;;;;;5090333;28;20247;-70
2023/03/29 09:14:14;;;;;;;27.67;12.57;;;13.20;99.90;;;;;;5090883;28;20031;-69
2023/03/29 09:16:58;;;;;;;25.02;11.70;;;13.30;99.90;;;;;;5090427;28;20028;-69
2023/03/29 09:19:45;;;;;;;22.52;11.27;;;13.30;99.90;;;;;;5085812;28;20028;-69
2023/03/29 09:22:32;;;;;;;26.75;11.35;;;13.30;99.90;;;;;;5081109;28;20020;-69
2023/03/29 09:25:24;;;;;;;20.98;10.35;;;13.50;99.90;;;;;;5091394;28;20052;-70
2023/03/29 09:27:53;;;;;;;;;;;13.70;99.90;;;;;;5065501;28;20048;-69
2023/03/29 09:30:27;;;;;;;25.85;11.00;;;13.80;99.90;;;;;;5088834;28;19953;-69
2023/03/29 09:33:04;;;;;;;28.90;12.65;;;14.00;99.90;;;;;;5089197;28;20028;-69
2023/03/29 09:35:52;;;;;;;32.88;10.75;;;14.20;99.90;;;;;;5090412;28;20066;-69
2023/03/29 09:38:21;;;;;;;23.13;11.23;;;14.40;99.90;;;;;;5090575;28;20093;-69
2023/03/29 09:40:54;;;;;;;27.42;11.80;;;14.40;99.90;;;;;;5090786;28;20050;-69
2023/03/29 09:43:41;;;;;;;33.92;17.48;;;14.50;99.90;;;;;;5090643;28;20096;-68
2023/03/29 09:46:18;;;;;;;26.73;13.05;;;14.60;99.90;;;;;;5080267;28;20045;-69
2023/03/29 09:48:45;;;;;;;25.00;12.45;;;14.60;99.90;;;;;;5089837;28;20035;-68
2023/03/29 09:51:12;;;;;;;22.75;12.52;;;14.60;99.90;;;;;;5091186;28;20020;-69
2023/03/29 09:53:38;;;;;;;18.10;8.57;;;14.70;99.90;;;;;;5090489;28;20021;-68
2023/03/29 09:56:05;;;;;;;26.05;11.52;;;14.90;99.90;;;;;;5091542;28;20085;-69
2023/03/29 09:58:31;;;;;;;25.60;11.15;;;15.00;99.90;;;;;;5091824;28;20039;-69
2023/03/29 10:01:07;;;;;;;20.17;9.05;;;15.10;99.90;;;;;;5089839;28;20028;-69
2023/03/29 10:03:33;;;;;;;23.33;11.73;;;15.00;99.90;;;;;;5089326;28;20036;-68
2023/03/29 10:06:03;;;;;;;20.63;9.77;;;14.90;99.90;;;;;;5090204;28;20032;-69
2023/03/29 10:08:46;;;;;;;20.25;10.20;;;14.90;99.90;;;;;;5091543;28;20039;-69
2023/03/29 10:11:22;;;;;;;23.48;11.30;;;15.00;99.90;;;;;;5089448;28;20063;-69
2023/03/29 10:13:53;;;;;;;20.80;9.05;;;15.00;99.90;;;;;;5080628;28;20047;-69
2023/03/29 10:16:27;;;;;;;20.38;9.75;;;15.20;99.90;;;;;;5084598;28;20052;-69
2023/03/29 10:18:53;;;;;;;22.85;10.93;;;15.50;99.90;;;;;;5085955;28;20111;-68
2023/03/29 10:21:20;;;;;;;22.60;10.70;;;15.60;99.90;;;;;;5087670;28;20107;-69
2023/03/29 10:23:47;;;;;;;30.75;13.00;;;15.40;99.90;;;;;;5091805;28;20155;-68
2023/03/29 10:26:31;;;;;;;27.08;12.27;;;15.50;99.90;;;;;;5094330;28;20063;-69
2023/03/29 10:29:00;;;;;;;30.20;13.23;;;15.60;99.90;;;;;;5091347;28;20046;-69
2023/03/29 10:31:36;;;;;;;31.25;13.70;;;15.70;99.90;;;;;;5086509;28;20029;-69
2023/03/29 10:34:05;;;;;;;24.10;11.88;;;15.80;99.90;;;;;;5086947;28;20039;-68
2023/03/29 10:36:31;;;;;;;23.02;12.40;;;15.80;99.90;;;;;;5090292;28;20061;-69
2023/03/29 10:38:59;;;;;;;23.20;11.82;;;15.80;99.90;;;;;;5092972;28;20039;-68
2023/03/29 10:41:28;;;;;;;24.08;11.40;;;15.70;99.90;;;;;;5093960;28;20032;-69
2023/03/29 10:43:54;;;;;;;25.23;11.57;;;15.70;99.90;;;;;;5092020;28;20032;-69
2023/03/29 10:46:35;;;;;;;23.80;11.27;;;15.80;99.90;;;;;;5093523;28;20043;-70
2023/03/29 10:49:09;;;;;;;20.27;10.80;;;15.80;99.90;;;;;;5085850;28;20737;-70
2023/03/29 10:51:35;;;;;;;22.33;10.68;;;15.80;99.90;;;;;;5090068;28;20514;-69
2023/03/29 10:54:02;;;;;;;18.77;9.05;;;15.80;99.90;;;;;;5093562;28;20031;-69
2023/03/29 10:56:45;;;;;;;21.05;9.73;;;15.70;99.90;;;;;;5093233;28;20036;-68
2023/03/29 10:59:47;;;;;;;23.98;13.50;;;15.70;99.90;;;;;;5094870;28;20082;-69
2023/03/29 11:02:26;;;;;;;23.33;12.00;;;15.60;99.90;;;;;;5092200;28;20077;-68
2023/03/29 11:05:15;;;;;;;23.67;11.30;;;15.60;99.90;;;;;;5092375;28;20476;-69
2023/03/29 11:07:56;;;;;;;19.40;9.35;;;15.60;99.90;;;;;;5082154;28;20040;-69
2023/03/29 11:10:44;;;;;;;24.10;11.38;;;15.70;99.90;;;;;;5094930;28;20021;-69
2023/03/29 11:13:31;;;;;;;18.13;9.18;;;15.80;99.90;;;;;;5093853;28;20463;-69
2023/03/29 11:16:09;;;;;;;19.27;8.20;;;15.90;99.90;;;;;;5094123;28;20043;-69
2023/03/29 11:18:58;;;;;;;19.88;10.40;;;16.00;99.90;;;;;;5094603;28;20139;-69
2023/03/29 11:21:49;;;;;;;21.25;9.80;;;16.10;99.90;;;;;;5093946;28;20155;-69
2023/03/29 11:24:45;;;;;;;21.73;10.38;;;16.00;99.90;;;;;;5091348;28;20091;-68
2023/03/29 11:27:32;;;;;;;21.50;9.68;;;16.20;99.90;;;;;;5090612;28;20047;-69
2023/03/29 11:30:31;;;;;;;18.08;8.07;;;16.50;99.90;;;;;;5085469;28;20036;-69
2023/03/29 11:33:06;;;;;;;16.40;7.57;;;16.90;99.90;;;;;;5089447;28;20024;-69
2023/03/29 11:35:35;;;;;;;19.90;9.55;;;17.20;99.90;;;;;;5086200;28;20032;-69
2023/03/29 11:38:04;;;;;;;21.75;9.85;;;17.70;99.90;;;;;;5091177;28;20028;-69
2023/03/29 11:40:57;;;;;;;11.27;6.15;;;18.00;99.90;;;;;;5093616;28;20023;-69
2023/03/29 11:43:38;;;;;;;17.48;7.93;;;17.90;99.90;;;;;;5084356;28;20542;-68
2023/03/29 11:46:38;;;;;;;21.80;9.73;;;17.60;99.90;;;;;;5085168;28;20048;-68
2023/03/29 11:49:10;;;;;;;18.30;9.52;;;17.40;99.90;;;;;;5086695;28;20028;-68
2023/03/29 11:52:16;;;;;;;19.48;9.60;;;17.30;99.90;;;;;;5091386;28;20036;-68
2023/03/29 11:55:10;;;;;;;20.70;8.63;;;17.10;99.90;;;;;;5085317;28;20048;-68
2023/03/29 11:57:47;;;;;;;18.17;8.88;;;17.00;99.90;;;;;;5094084;28;20032;-68
2023/03/29 12:00:19;;;;;;;18.77;8.65;;;16.90;99.90;;;;;;5090791;28;20573;-67
2023/03/29 12:02:54;;;;;;;21.98;10.50;;;16.70;99.90;;;;;;5081735;28;20425;-69
2023/03/29 12:05:38;;;;;;;19.42;9.50;;;16.40;99.90;;;;;;5088578;28;20032;-69
2023/03/29 12:08:06;;;;;;;18.70;8.52;;;16.10;99.90;;;;;;5089711;28;20024;-69
2023/03/29 12:10:51;;;;;;;16.48;8.32;;;15.90;99.90;;;;;;5087369;28;20028;-69
2023/03/29 12:13:27;;;;;;;18.45;8.38;;;15.60;99.90;;;;;;5085584;28;20035;-70
2023/03/29 12:15:59;;;;;;;16.05;8.18;;;15.50;99.90;;;;;;5087326;28;20036;-69
2023/03/29 12:18:33;;;;;;;;;;;15.20;99.90;;;;;;5090854;28;20028;-69
2023/03/29 12:21:02;;;;;;;20.88;8.95;;;15.10;99.90;;;;;;5086428;28;20007;-68
2023/03/29 12:23:31;;;;;;;18.60;9.07;;;14.90;99.90;;;;;;5087545;28;20039;-68
2023/03/29 12:26:07;;;;;;;19.15;8.45;;;15.00;99.90;;;;;;5085348;28;20504;-69
2023/03/29 12:28:51;;;;;;;17.45;7.88;;;15.10;99.90;;;;;;5092029;28;20028;-68
2023/03/29 12:31:38;;;;;;;20.77;8.75;;;15.30;99.90;;;;;;5086538;28;20127;-68
2023/03/29 12:34:41;;;;;;;20.50;9.35;;;15.70;99.90;;;;;;5083697;28;20047;-69
2023/03/29 12:37:25;;;;;;;19.25;10.30;;;16.10;99.90;;;;;;5089877;28;20039;-68
2023/03/29 12:39:52;;;;;;;19.27;8.93;;;16.30;99.90;;;;;;5083199;28;20081;-69
2023/03/29 12:42:22;;;;;;;19.05;9.82;;;16.40;99.90;;;;;;5086095;28;20046;-68
2023/03/29 12:44:57;;;;;;;20.52;10.38;;;16.40;99.90;;;;;;5090059;28;20110;-69
2023/03/29 12:47:26;;;;;;;23.77;11.45;;;16.50;99.90;;;;;;5091405;28;20123;-68
2023/03/29 12:49:55;;;;;;;22.30;11.80;;;16.50;99.90;;;;;;5088346;28;20728;-69
2023/03/29 12:52:35;;;;;;;21.67;11.05;;;16.50;99.90;;;;;;5086760;28;20028;-69
2023/03/29 12:55:23;;;;;;;20.55;11.98;;;16.20;99.90;;;;;;5086420;28;20020;-70
2023/03/29 12:58:20;;;;;;;23.00;12.45;;;16.00;99.90;;;;;;5089138;28;20069;-68
2023/03/29 13:00:54;;;;;;;17.92;9.50;;;15.70;99.90;;;;;;5087137;28;20636;-69
2023/03/29 13:03:28;;;;;;;23.10;12.73;;;15.60;99.90;;;;;;5086696;28;20024;-69